createdAt,value
2022-10-05T00:02:33.960Z,65.46
2022-10-05T00:05:30.208Z,64.75
2022-10-05T00:08:26.484Z,65.30
2022-10-05T00:11:17.087Z,64.16
2022-10-05T00:13:59.584Z,63.76
2022-10-05T00:16:48.532Z,64.56
2022-10-05T00:19:49.083Z,63.97
2022-10-05T00:22:41.015Z,64.47
2022-10-05T00:25:36.098Z,65.06
2022-10-05T00:28:44.403Z,65.25
2022-10-05T00:31:32.082Z,65.60
2022-10-05T00:34:14.308Z,66.33
2022-10-05T00:37:03.081Z,66.67
2022-10-05T00:39:51.985Z,67.07
2022-10-05T00:42:41.151Z,67.03
2022-10-05T00:45:30.432Z,66.66
2022-10-05T00:48:31.119Z,67.04
2022-10-05T00:51:29.075Z,66.12
2022-10-05T00:54:37.392Z,66.33
2022-10-05T00:58:02.057Z,66.70
2022-10-05T01:01:09.125Z,66.15
2022-10-05T01:04:23.399Z,66.37
2022-10-05T01:07:20.367Z,66.30
2022-10-05T01:10:18.068Z,65.71
2022-10-05T01:13:07.036Z,66.16
2022-10-05T01:16:06.152Z,66.13
2022-10-05T01:18:51.415Z,67.22
2022-10-05T01:21:49.145Z,65.71
2022-10-05T01:25:00.446Z,66.70
2022-10-05T01:28:12.145Z,65.81
2022-10-05T01:31:14.429Z,66.00
2022-10-05T01:34:14.071Z,66.34
2022-10-05T01:37:35.967Z,65.99
2022-10-05T01:40:32.102Z,65.41
2022-10-05T01:43:26.995Z,66.42
2022-10-05T01:47:00.118Z,66.38
2022-10-05T01:50:01.752Z,65.89
2022-10-05T01:53:24.155Z,66.28
2022-10-05T01:56:10.326Z,65.17
2022-10-05T01:59:16.099Z,65.29
2022-10-05T02:02:19.091Z,65.65
2022-10-05T02:05:28.067Z,65.16
2022-10-05T02:08:24.996Z,66.40
2022-10-05T02:11:18.071Z,64.96
2022-10-05T02:14:12.990Z,66.38
2022-10-05T02:17:07.066Z,65.37
2022-10-05T02:19:53.422Z,65.44
2022-10-05T02:22:52.090Z,65.39
2022-10-05T02:25:43.407Z,64.44
2022-10-05T02:28:47.081Z,64.92
2022-10-05T02:32:21.518Z,64.26
2022-10-05T02:35:15.141Z,62.85
2022-10-05T02:38:33.573Z,62.19
2022-10-05T02:41:40.075Z,60.40
2022-10-05T02:44:31.393Z,60.95
2022-10-05T02:47:56.090Z,59.49
2022-10-05T02:51:18.124Z,58.27
2022-10-05T02:54:26.087Z,57.72
2022-10-05T02:57:27.001Z,56.82
2022-10-05T03:00:27.101Z,55.88
2022-10-05T03:03:35.999Z,55.77
2022-10-05T03:06:34.105Z,54.19
2022-10-05T03:09:24.964Z,54.15
2022-10-05T03:12:52.076Z,54.13
2022-10-05T03:16:14.075Z,52.46
2022-10-05T03:19:21.102Z,51.60
2022-10-05T03:22:53.126Z,51.31
2022-10-05T03:26:19.334Z,50.46
2022-10-05T03:29:43.163Z,50.92
2022-10-05T03:32:52.356Z,51.55
2022-10-05T03:36:09.154Z,51.06
2022-10-05T03:39:37.583Z,53.32
2022-10-05T03:42:37.145Z,49.27
2022-10-05T03:45:41.367Z,50.20
2022-10-05T03:48:28.117Z,48.97
2022-10-05T03:51:33.033Z,48.99
2022-10-05T03:54:44.104Z,46.85
2022-10-05T03:57:29.774Z,46.30
2022-10-05T04:00:27.072Z,47.07
2022-10-05T04:03:30.015Z,45.33
2022-10-05T04:06:35.073Z,46.65
2022-10-05T04:09:32.442Z,45.60
2022-10-05T04:12:28.080Z,44.74
2022-10-05T04:15:18.577Z,44.11
2022-10-05T04:18:46.129Z,45.46
2022-10-05T04:21:44.538Z,41.18
2022-10-05T04:25:17.089Z,40.25
2022-10-05T04:28:09.418Z,40.87
2022-10-05T04:31:01.147Z,40.43
2022-10-05T04:33:50.072Z,38.56
2022-10-05T04:36:44.889Z,37.75
2022-10-05T04:39:48.096Z,36.64
2022-10-05T04:43:20.364Z,38.44
2022-10-05T04:46:37.114Z,38.23
2022-10-05T04:49:34.074Z,38.06
2022-10-05T04:52:52.090Z,35.50
2022-10-05T04:56:01.073Z,36.85
2022-10-05T04:59:04.373Z,35.21
2022-10-05T05:02:03.193Z,34.63
2022-10-05T05:05:28.352Z,34.81
2022-10-05T05:08:35.118Z,33.83
2022-10-05T05:11:35.362Z,35.58
2022-10-05T05:14:27.096Z,33.85
2022-10-05T05:17:35.293Z,35.87
2022-10-05T05:20:54.454Z,34.55
2022-10-05T05:24:12.500Z,32.62
2022-10-05T05:26:55.136Z,34.14
2022-10-05T05:29:56.515Z,33.70
2022-10-05T05:32:47.061Z,32.85
2022-10-05T05:35:47.698Z,33.78
2022-10-05T05:38:46.090Z,33.98
2022-10-05T05:41:44.074Z,32.44
2022-10-05T05:44:39.657Z,34.33
2022-10-05T05:47:45.181Z,33.45
2022-10-05T05:50:46.461Z,34.14
2022-10-05T05:54:17.093Z,33.27
2022-10-05T05:57:21.431Z,33.59
2022-10-05T06:00:25.247Z,32.00
2022-10-05T06:03:33.955Z,33.27
2022-10-05T06:06:27.068Z,35.71
2022-10-05T06:09:29.086Z,31.36
2022-10-05T06:12:45.721Z,30.00
2022-10-05T06:15:48.138Z,32.81
2022-10-05T06:18:41.392Z,31.43
2022-10-05T06:21:34.475Z,34.56
2022-10-05T06:24:44.403Z,34.64
2022-10-05T06:27:47.135Z,31.43
2022-10-05T06:30:42.873Z,32.08
2022-10-05T06:34:00.082Z,33.94
2022-10-05T06:37:04.078Z,32.37
2022-10-05T06:40:10.098Z,30.28
2022-10-05T06:43:23.489Z,28.61
2022-10-05T06:46:33.188Z,28.60
2022-10-05T06:49:55.151Z,30.89
2022-10-05T06:53:30.231Z,25.76
2022-10-05T06:56:40.497Z,28.20
2022-10-05T06:59:48.146Z,26.41
2022-10-05T07:03:03.927Z,27.60
2022-10-05T07:06:20.083Z,27.67
2022-10-05T07:09:32.492Z,29.39
2022-10-05T07:12:48.073Z,31.00
2022-10-05T07:15:59.194Z,30.01
2022-10-05T07:19:22.371Z,29.75
2022-10-05T07:22:41.367Z,29.43
2022-10-05T07:25:29.378Z,28.99
2022-10-05T07:28:22.156Z,31.79
2022-10-05T07:31:32.427Z,30.81
2022-10-05T07:34:27.144Z,30.71
2022-10-05T07:37:52.990Z,31.75
2022-10-05T07:40:56.138Z,28.63
2022-10-05T07:44:02.394Z,30.06
2022-10-05T07:47:04.083Z,29.00
2022-10-05T07:49:59.895Z,29.31
2022-10-05T07:53:03.142Z,29.57
2022-10-05T07:55:53.539Z,28.79
2022-10-05T07:58:55.144Z,29.05
2022-10-05T08:01:43.167Z,28.46
2022-10-05T08:04:58.101Z,29.03
2022-10-05T08:07:47.366Z,28.80
2022-10-05T08:10:44.051Z,29.11
2022-10-05T08:13:44.380Z,28.64
2022-10-05T08:16:28.347Z,28.27
2022-10-05T08:19:41.380Z,28.76
2022-10-05T08:22:34.147Z,28.01
2022-10-05T08:25:34.515Z,28.69
2022-10-05T08:28:32.440Z,28.14
2022-10-05T08:31:41.454Z,27.26
2022-10-05T08:34:32.157Z,27.98
2022-10-05T08:37:33.382Z,28.86
2022-10-05T08:40:26.166Z,29.87
2022-10-05T08:43:38.407Z,30.01
2022-10-05T08:46:33.156Z,29.44
2022-10-05T08:49:46.091Z,31.37
2022-10-05T08:52:33.487Z,29.77
2022-10-05T08:55:49.140Z,29.79
2022-10-05T08:58:49.475Z,30.28
2022-10-05T09:02:05.172Z,29.02
2022-10-05T09:05:35.166Z,29.76
2022-10-05T09:08:35.618Z,28.62
2022-10-05T09:11:42.096Z,29.17
2022-10-05T09:15:23.808Z,28.99
2022-10-05T09:18:47.223Z,27.57
2022-10-05T09:21:53.029Z,26.28
2022-10-05T09:25:03.156Z,27.21
2022-10-05T09:28:01.086Z,25.95
2022-10-05T09:31:24.307Z,23.62
2022-10-05T09:34:09.336Z,24.11
2022-10-05T09:37:19.365Z,24.78
2022-10-05T09:40:16.497Z,25.19
2022-10-05T09:43:23.099Z,25.12
2022-10-05T09:46:05.311Z,24.81
2022-10-05T09:49:25.096Z,25.29
2022-10-05T09:53:01.134Z,25.57
2022-10-05T09:56:22.620Z,24.56
2022-10-05T09:59:15.069Z,26.12
2022-10-05T10:01:57.972Z,26.02
2022-10-05T10:04:47.093Z,27.15
2022-10-05T10:07:59.538Z,26.64
2022-10-05T10:10:51.125Z,27.47
2022-10-05T10:13:54.668Z,26.95
2022-10-05T10:16:58.078Z,28.09
2022-10-05T10:20:11.397Z,27.93
2022-10-05T10:23:21.191Z,28.57
2022-10-05T10:26:31.527Z,29.61
2022-10-05T10:29:34.149Z,29.45
2022-10-05T10:33:01.516Z,30.18
2022-10-05T10:35:53.148Z,29.91
2022-10-05T10:38:49.688Z,29.50
2022-10-05T10:42:01.096Z,29.49
2022-10-05T10:45:18.457Z,29.70
2022-10-05T10:48:15.192Z,32.30
2022-10-05T10:51:34.581Z,30.24
2022-10-05T10:54:31.080Z,29.20
2022-10-05T10:57:33.377Z,29.70
2022-10-05T11:00:43.062Z,30.14
2022-10-05T11:04:04.146Z,30.18
2022-10-05T11:07:10.381Z,29.83
2022-10-05T11:10:10.127Z,29.97
2022-10-05T11:13:13.450Z,31.91
2022-10-05T11:16:18.800Z,32.93
2022-10-05T11:19:35.201Z,31.99
2022-10-05T11:23:07.045Z,33.42
2022-10-05T11:26:10.172Z,33.32
2022-10-05T11:29:17.115Z,33.76
2022-10-05T11:32:07.748Z,32.08
2022-10-05T11:35:35.096Z,32.68
2022-10-05T11:38:49.056Z,33.22
2022-10-05T11:42:02.070Z,32.26
2022-10-05T11:45:24.184Z,33.83
2022-10-05T11:48:07.674Z,32.91
2022-10-05T11:51:16.496Z,34.22
2022-10-05T11:54:52.081Z,35.59
2022-10-05T11:57:59.069Z,36.93
2022-10-05T12:00:58.191Z,37.37
2022-10-05T12:04:17.560Z,37.58
2022-10-05T12:07:31.047Z,41.16
2022-10-05T12:10:40.145Z,41.50
2022-10-05T12:13:31.593Z,42.12
2022-10-05T12:16:52.145Z,43.19
2022-10-05T12:19:47.584Z,43.72
2022-10-05T12:22:45.064Z,42.39
2022-10-05T12:26:00.090Z,43.74
2022-10-05T12:29:00.487Z,43.81
2022-10-05T12:31:48.182Z,44.40
2022-10-05T12:35:06.544Z,44.06
2022-10-05T12:38:03.149Z,44.56
2022-10-05T12:40:57.888Z,44.93
2022-10-05T12:44:10.219Z,43.30
2022-10-05T12:47:21.642Z,45.34
2022-10-05T12:50:24.132Z,44.33
2022-10-05T12:53:31.984Z,45.16
2022-10-05T12:56:25.142Z,42.45
2022-10-05T12:59:35.154Z,42.16
2022-10-05T13:02:24.797Z,42.86
2022-10-05T13:05:20.135Z,42.64
2022-10-05T13:08:23.740Z,42.66
2022-10-05T13:11:36.105Z,42.76
2022-10-05T13:14:45.144Z,42.68
2022-10-05T13:17:42.550Z,44.59
2022-10-05T13:20:59.013Z,45.19
2022-10-05T13:24:02.190Z,46.34
2022-10-05T13:26:56.135Z,46.08
2022-10-05T13:30:01.056Z,46.66
2022-10-05T13:32:49.192Z,46.91
2022-10-05T13:36:08.689Z,47.34
2022-10-05T13:39:22.152Z,48.13
2022-10-05T13:42:14.506Z,49.24
2022-10-05T13:45:08.213Z,48.62
2022-10-05T13:48:34.804Z,49.30
2022-10-05T13:51:26.052Z,49.42
2022-10-05T13:54:34.029Z,49.67
2022-10-05T13:58:00.161Z,49.57
2022-10-05T14:01:20.208Z,49.49
2022-10-05T14:04:32.173Z,49.66
2022-10-05T14:07:36.146Z,49.30
2022-10-05T14:10:30.480Z,50.43
2022-10-05T14:13:21.516Z,51.14
2022-10-05T14:16:28.968Z,50.97
2022-10-05T14:19:28.670Z,50.73
2022-10-05T14:22:30.074Z,50.59
2022-10-05T14:25:20.999Z,50.49
2022-10-05T14:28:04.500Z,50.27
2022-10-05T14:31:10.533Z,49.94
2022-10-05T14:33:54.919Z,51.03
2022-10-05T14:36:45.104Z,51.49
2022-10-05T14:39:40.211Z,51.90
2022-10-05T14:42:51.531Z,52.02
2022-10-05T14:45:38.256Z,51.80
2022-10-05T14:48:20.486Z,50.82
2022-10-05T14:51:13.227Z,49.80
2022-10-05T14:54:11.749Z,50.11
2022-10-05T14:57:03.220Z,49.68
2022-10-05T15:00:02.073Z,49.64
2022-10-05T15:03:07.190Z,50.33
2022-10-05T15:06:11.231Z,50.81
2022-10-05T15:09:17.285Z,50.29
2022-10-05T15:12:10.119Z,51.44
2022-10-05T15:14:54.508Z,51.43
2022-10-05T15:17:53.137Z,51.76
2022-10-05T15:20:57.435Z,51.46
2022-10-05T15:24:03.212Z,51.26
2022-10-05T15:26:58.632Z,50.33
2022-10-05T15:30:03.152Z,50.08
2022-10-05T15:33:14.136Z,50.58
2022-10-05T15:36:14.713Z,51.04
2022-10-05T15:39:34.485Z,52.64
2022-10-05T15:42:21.110Z,51.95
2022-10-05T15:45:40.915Z,53.01
2022-10-05T15:48:50.468Z,53.25
2022-10-05T15:51:35.201Z,53.69
2022-10-05T15:54:45.095Z,53.12
2022-10-05T15:58:19.278Z,53.16
2022-10-05T16:01:30.478Z,54.31
2022-10-05T16:04:29.109Z,52.98
2022-10-05T16:07:48.791Z,52.33
2022-10-05T16:10:40.157Z,51.98
2022-10-05T16:13:56.049Z,52.00
2022-10-05T16:17:17.156Z,52.40
2022-10-05T16:20:36.901Z,52.20
2022-10-05T16:23:29.161Z,54.44
2022-10-05T16:26:46.187Z,53.70
2022-10-05T16:30:01.112Z,53.97
2022-10-05T16:33:14.125Z,53.86
2022-10-05T16:36:37.534Z,54.44
2022-10-05T16:40:06.128Z,54.25
2022-10-05T16:43:14.439Z,54.61
2022-10-05T16:46:27.674Z,54.61
2022-10-05T16:49:49.354Z,55.30
2022-10-05T16:52:40.284Z,55.71
2022-10-05T16:55:49.944Z,55.14
2022-10-05T16:58:58.121Z,55.53
2022-10-05T17:01:50.287Z,56.17
2022-10-05T17:05:07.134Z,56.05
2022-10-05T17:08:22.690Z,55.38
2022-10-05T17:11:16.008Z,56.11
2022-10-05T17:14:21.563Z,56.14
2022-10-05T17:17:06.261Z,56.47
2022-10-05T17:20:03.492Z,57.35
2022-10-05T17:23:07.131Z,57.40
2022-10-05T17:26:03.461Z,57.39
2022-10-05T17:28:54.104Z,58.08
2022-10-05T17:32:14.566Z,58.26
2022-10-05T17:35:15.957Z,58.70
2022-10-05T17:38:23.317Z,59.75
2022-10-05T17:41:08.540Z,60.26
2022-10-05T17:44:28.473Z,60.90
2022-10-05T17:47:12.348Z,61.13
2022-10-05T17:50:46.241Z,61.54
2022-10-05T17:54:00.675Z,61.96
2022-10-05T17:56:56.148Z,62.62
2022-10-05T18:00:05.491Z,63.78
2022-10-05T18:02:56.301Z,63.89
2022-10-05T18:05:44.444Z,64.48
2022-10-05T18:08:33.274Z,64.36
2022-10-05T18:11:37.778Z,64.22
2022-10-05T18:14:34.058Z,65.46
2022-10-05T18:17:43.092Z,65.02
2022-10-05T18:20:35.033Z,65.47
2022-10-05T18:23:33.184Z,65.18
2022-10-05T18:26:33.396Z,65.73
2022-10-05T18:30:13.138Z,65.55
2022-10-05T18:33:28.269Z,66.36
2022-10-05T18:36:37.939Z,65.94
2022-10-05T18:39:26.530Z,65.88
2022-10-05T18:42:49.063Z,66.12
2022-10-05T18:45:45.388Z,66.70
2022-10-05T18:48:39.052Z,67.00
2022-10-05T18:51:56.054Z,66.74
2022-10-05T18:55:17.052Z,67.00
2022-10-05T18:58:15.028Z,67.29
2022-10-05T19:00:57.706Z,67.23
2022-10-05T19:03:57.069Z,66.94
2022-10-05T19:06:59.044Z,66.83
2022-10-05T19:10:16.041Z,67.07
2022-10-05T19:13:29.225Z,67.40
2022-10-05T19:16:31.421Z,67.26
2022-10-05T19:19:34.067Z,67.76
2022-10-05T19:22:53.307Z,64.98
2022-10-05T19:25:47.184Z,65.41
2022-10-05T19:28:40.035Z,64.88
2022-10-05T19:31:50.045Z,65.98
2022-10-05T19:34:56.062Z,66.02
2022-10-05T19:38:15.686Z,65.23
2022-10-05T19:41:11.359Z,65.15
2022-10-05T19:44:14.048Z,66.23
2022-10-05T19:47:02.178Z,65.71
2022-10-05T19:50:04.040Z,65.91
2022-10-05T19:52:53.393Z,66.55
2022-10-05T19:55:59.033Z,67.48
2022-10-05T19:58:48.309Z,66.45
2022-10-05T20:01:32.524Z,67.03
2022-10-05T20:04:27.885Z,66.92
2022-10-05T20:07:25.052Z,66.44
2022-10-05T20:10:30.679Z,66.58
2022-10-05T20:13:31.027Z,67.40
2022-10-05T20:16:47.934Z,68.15
2022-10-05T20:20:03.062Z,67.66
2022-10-05T20:22:48.336Z,67.38
2022-10-05T20:25:40.123Z,67.12
2022-10-05T20:28:38.396Z,67.44
2022-10-05T20:31:28.141Z,67.47
2022-10-05T20:34:10.329Z,67.97
2022-10-05T20:37:00.086Z,67.87
2022-10-05T20:39:42.633Z,67.12
2022-10-05T20:42:31.029Z,68.28
2022-10-05T20:45:19.960Z,68.37
2022-10-05T20:48:10.047Z,67.55
2022-10-05T20:50:52.678Z,67.54
2022-10-05T20:53:42.095Z,67.97
2022-10-05T20:56:27.967Z,67.94
2022-10-05T20:59:17.094Z,68.26
2022-10-05T21:02:00.538Z,67.63
2022-10-05T21:04:58.043Z,67.82
2022-10-05T21:07:41.900Z,67.94
2022-10-05T21:10:30.999Z,68.05
2022-10-05T21:13:19.999Z,67.87
2022-10-05T21:16:02.337Z,68.36
2022-10-05T21:18:54.007Z,68.03
2022-10-05T21:21:42.909Z,68.11
2022-10-05T21:24:34.081Z,68.47
2022-10-05T21:27:17.829Z,67.75
2022-10-05T21:30:06.990Z,68.30
2022-10-05T21:32:55.914Z,67.97
2022-10-05T21:35:45.044Z,67.90
2022-10-05T21:38:29.360Z,67.50
2022-10-05T21:41:19.054Z,67.00
2022-10-05T21:44:01.472Z,67.34
2022-10-05T21:46:50.093Z,67.02
2022-10-05T21:49:33.305Z,67.88
2022-10-05T21:52:22.083Z,67.86
2022-10-05T21:55:04.309Z,67.86
2022-10-05T21:58:05.095Z,67.30
2022-10-05T22:00:47.465Z,66.79
2022-10-05T22:03:36.071Z,67.86
2022-10-05T22:06:24.341Z,68.18
2022-10-05T22:09:07.011Z,67.34
2022-10-05T22:11:56.387Z,66.98
2022-10-05T22:14:40.088Z,67.41
2022-10-05T22:17:37.244Z,67.38
2022-10-05T22:20:22.029Z,67.31
2022-10-05T22:23:10.844Z,66.84
2022-10-05T22:25:55.033Z,66.75
2022-10-05T22:28:45.372Z,67.48
2022-10-05T22:31:28.142Z,67.40
2022-10-05T22:34:16.380Z,66.98
2022-10-05T22:36:59.090Z,67.12
2022-10-05T22:39:49.308Z,67.28
2022-10-05T22:42:32.028Z,67.15
2022-10-05T22:45:21.944Z,67.30
2022-10-05T22:48:11.003Z,67.40
2022-10-05T22:50:59.959Z,67.52
2022-10-05T22:53:50.014Z,66.51
2022-10-05T22:56:38.320Z,67.48
2022-10-05T22:59:21.040Z,66.59
2022-10-05T23:02:09.961Z,67.39
2022-10-05T23:04:59.061Z,67.41
2022-10-05T23:07:50.337Z,67.55
2022-10-05T23:10:34.432Z,67.76
2022-10-05T23:13:23.627Z,67.72
2022-10-05T23:16:05.919Z,67.36
2022-10-05T23:19:00.206Z,67.09
2022-10-05T23:21:42.101Z,67.93
2022-10-05T23:24:30.292Z,67.24
2022-10-05T23:27:13.060Z,67.52
2022-10-05T23:30:01.303Z,67.45
2022-10-05T23:32:52.023Z,66.46
2022-10-05T23:35:40.320Z,66.60
2022-10-05T23:38:23.082Z,67.28
2022-10-05T23:41:13.354Z,67.20
2022-10-05T23:47:07.328Z,68.52
2022-10-05T23:49:49.062Z,67.33
2022-10-05T23:52:37.308Z,67.13
2022-10-05T23:55:19.049Z,67.46
2022-10-05T23:58:07.303Z,67.59
